sensor_id;sensor_type;location;lat;lon;timestamp;P1;durP1;ratioP1;P2;durP2;ratioP2
35679;SDS011;21803;53.586;10.040;2024-01-11T00:01:03;1.23;;;1.13;;
35679;SDS011;21803;53.586;10.040;2024-01-11T00:03:28;1.17;;;1.07;;
35679;SDS011;21803;53.586;10.040;2024-01-11T00:05:54;1.10;;;1.00;;
35679;SDS011;21803;53.586;10.040;2024-01-11T00:08:19;0.97;;;0.93;;
35679;SDS011;21803;53.586;10.040;2024-01-11T00:10:45;1.30;;;1.07;;
35679;SDS011;21803;53.586;10.040;2024-01-11T00:13:11;1.27;;;1.17;;
35679;SDS011;21803;53.586;10.040;2024-01-11T00:15:37;1.20;;;1.10;;
35679;SDS011;21803;53.586;10.040;2024-01-11T00:18:03;0.73;;;0.70;;
35679;SDS011;21803;53.586;10.040;2024-01-11T00:20:29;1.00;;;0.90;;
35679;SDS011;21803;53.586;10.040;2024-01-11T00:22:55;1.27;;;1.17;;
35679;SDS011;21803;53.586;10.040;2024-01-11T00:25:21;1.10;;;1.00;;
35679;SDS011;21803;53.586;10.040;2024-01-11T00:27:47;1.40;;;0.90;;
35679;SDS011;21803;53.586;10.040;2024-01-11T00:30:12;0.97;;;0.80;;
35679;SDS011;21803;53.586;10.040;2024-01-11T00:32:38;0.83;;;0.80;;
35679;SDS011;21803;53.586;10.040;2024-01-11T00:35:05;1.10;;;1.00;;
35679;SDS011;21803;53.586;10.040;2024-01-11T00:37:31;1.20;;;1.10;;
35679;SDS011;21803;53.586;10.040;2024-01-11T00:39:56;1.20;;;1.10;;
35679;SDS011;21803;53.586;10.040;2024-01-11T00:42:22;1.00;;;0.90;;
35679;SDS011;21803;53.586;10.040;2024-01-11T00:44:47;0.90;;;0.90;;
35679;SDS011;21803;53.586;10.040;2024-01-11T00:47:14;1.07;;;0.97;;
35679;SDS011;21803;53.586;10.040;2024-01-11T00:49:40;1.20;;;1.10;;
35679;SDS011;21803;53.586;10.040;2024-01-11T00:52:05;1.30;;;1.17;;
35679;SDS011;21803;53.586;10.040;2024-01-11T00:54:31;1.00;;;0.90;;
35679;SDS011;21803;53.586;10.040;2024-01-11T00:56:57;1.00;;;0.90;;
35679;SDS011;21803;53.586;10.040;2024-01-11T00:59:23;1.10;;;0.90;;
35679;SDS011;21803;53.586;10.040;2024-01-11T01:01:49;1.00;;;0.90;;
35679;SDS011;21803;53.586;10.040;2024-01-11T01:04:15;1.37;;;1.00;;
35679;SDS011;21803;53.586;10.040;2024-01-11T01:06:41;1.10;;;0.90;;
35679;SDS011;21803;53.586;10.040;2024-01-11T01:09:07;1.10;;;1.00;;
35679;SDS011;21803;53.586;10.040;2024-01-11T01:11:33;0.90;;;0.90;;
35679;SDS011;21803;53.586;10.040;2024-01-11T01:13:59;1.10;;;0.97;;
35679;SDS011;21803;53.586;10.040;2024-01-11T01:16:25;0.83;;;0.83;;
35679;SDS011;21803;53.586;10.040;2024-01-11T01:18:51;1.00;;;0.90;;
35679;SDS011;21803;53.586;10.040;2024-01-11T01:21:16;1.07;;;0.97;;
35679;SDS011;21803;53.586;10.040;2024-01-11T01:23:42;1.00;;;0.90;;
35679;SDS011;21803;53.586;10.040;2024-01-11T01:26:07;1.03;;;0.90;;
35679;SDS011;21803;53.586;10.040;2024-01-11T01:28:33;1.00;;;0.90;;
35679;SDS011;21803;53.586;10.040;2024-01-11T01:30:59;1.17;;;0.97;;
35679;SDS011;21803;53.586;10.040;2024-01-11T01:33:25;1.10;;;1.00;;
35679;SDS011;21803;53.586;10.040;2024-01-11T01:35:51;1.00;;;0.90;;
35679;SDS011;21803;53.586;10.040;2024-01-11T01:38:17;1.00;;;0.90;;
35679;SDS011;21803;53.586;10.040;2024-01-11T01:40:43;1.10;;;1.00;;
35679;SDS011;21803;53.586;10.040;2024-01-11T01:43:09;0.80;;;0.70;;
35679;SDS011;21803;53.586;10.040;2024-01-11T01:45:35;1.00;;;0.90;;
35679;SDS011;21803;53.586;10.040;2024-01-11T01:48:00;1.00;;;0.90;;
35679;SDS011;21803;53.586;10.040;2024-01-11T01:50:27;1.00;;;0.87;;
35679;SDS011;21803;53.586;10.040;2024-01-11T01:52:53;0.80;;;0.80;;
35679;SDS011;21803;53.586;10.040;2024-01-11T01:55:19;1.10;;;1.00;;
35679;SDS011;21803;53.586;10.040;2024-01-11T01:57:46;1.20;;;1.07;;
35679;SDS011;21803;53.586;10.040;2024-01-11T02:00:13;1.00;;;0.80;;
35679;SDS011;21803;53.586;10.040;2024-01-11T02:02:39;0.77;;;0.77;;
35679;SDS011;21803;53.586;10.040;2024-01-11T02:05:08;1.00;;;0.90;;
35679;SDS011;21803;53.586;10.040;2024-01-11T02:07:35;1.00;;;0.90;;
35679;SDS011;21803;53.586;10.040;2024-01-11T02:10:01;1.00;;;0.90;;
35679;SDS011;21803;53.586;10.040;2024-01-11T02:12:28;1.33;;;1.00;;
35679;SDS011;21803;53.586;10.040;2024-01-11T02:14:54;1.03;;;0.93;;
35679;SDS011;21803;53.586;10.040;2024-01-11T02:17:20;1.00;;;0.90;;
35679;SDS011;21803;53.586;10.040;2024-01-11T02:19:46;1.10;;;1.00;;
35679;SDS011;21803;53.586;10.040;2024-01-11T02:22:16;1.00;;;0.90;;
35679;SDS011;21803;53.586;10.040;2024-01-11T02:24:46;0.80;;;0.80;;
35679;SDS011;21803;53.586;10.040;2024-01-11T02:27:12;1.43;;;1.00;;
35679;SDS011;21803;53.586;10.040;2024-01-11T02:29:37;1.30;;;1.00;;
35679;SDS011;21803;53.586;10.040;2024-01-11T02:32:03;1.07;;;0.97;;
35679;SDS011;21803;53.586;10.040;2024-01-11T02:34:31;1.00;;;0.90;;
35679;SDS011;21803;53.586;10.040;2024-01-11T02:36:57;1.00;;;0.90;;
35679;SDS011;21803;53.586;10.040;2024-01-11T02:39:23;1.00;;;1.00;;
35679;SDS011;21803;53.586;10.040;2024-01-11T02:41:49;1.20;;;1.10;;
35679;SDS011;21803;53.586;10.040;2024-01-11T02:44:16;1.07;;;0.93;;
35679;SDS011;21803;53.586;10.040;2024-01-11T02:46:42;1.00;;;0.90;;
35679;SDS011;21803;53.586;10.040;2024-01-11T02:49:07;1.17;;;1.00;;
35679;SDS011;21803;53.586;10.040;2024-01-11T02:51:33;1.00;;;0.90;;
35679;SDS011;21803;53.586;10.040;2024-01-11T02:54:00;0.97;;;0.90;;
35679;SDS011;21803;53.586;10.040;2024-01-11T02:56:26;1.33;;;1.00;;
35679;SDS011;21803;53.586;10.040;2024-01-11T02:58:51;1.13;;;1.03;;
35679;SDS011;21803;53.586;10.040;2024-01-11T03:01:17;0.80;;;0.80;;
35679;SDS011;21803;53.586;10.040;2024-01-11T03:03:43;0.93;;;0.80;;
35679;SDS011;21803;53.586;10.040;2024-01-11T03:06:09;1.00;;;0.90;;
35679;SDS011;21803;53.586;10.040;2024-01-11T03:08:35;1.30;;;1.20;;
35679;SDS011;21803;53.586;10.040;2024-01-11T03:11:01;1.10;;;1.00;;
35679;SDS011;21803;53.586;10.040;2024-01-11T03:13:27;1.10;;;1.00;;
35679;SDS011;21803;53.586;10.040;2024-01-11T03:15:53;1.13;;;1.03;;
35679;SDS011;21803;53.586;10.040;2024-01-11T03:18:19;1.13;;;1.00;;
35679;SDS011;21803;53.586;10.040;2024-01-11T03:20:45;1.00;;;0.90;;
35679;SDS011;21803;53.586;10.040;2024-01-11T03:23:10;1.17;;;1.07;;
35679;SDS011;21803;53.586;10.040;2024-01-11T03:25:36;1.10;;;0.90;;
35679;SDS011;21803;53.586;10.040;2024-01-11T03:28:01;1.63;;;1.17;;
35679;SDS011;21803;53.586;10.040;2024-01-11T03:30:27;1.27;;;1.00;;
35679;SDS011;21803;53.586;10.040;2024-01-11T03:32:53;1.07;;;0.93;;
35679;SDS011;21803;53.586;10.040;2024-01-11T03:35:19;1.07;;;0.90;;
35679;SDS011;21803;53.586;10.040;2024-01-11T03:37:45;1.67;;;1.20;;
35679;SDS011;21803;53.586;10.040;2024-01-11T03:40:11;1.20;;;1.03;;
35679;SDS011;21803;53.586;10.040;2024-01-11T03:42:37;1.63;;;1.30;;
35679;SDS011;21803;53.586;10.040;2024-01-11T03:45:03;1.33;;;1.20;;
35679;SDS011;21803;53.586;10.040;2024-01-11T03:47:29;1.30;;;0.90;;
35679;SDS011;21803;53.586;10.040;2024-01-11T03:49:55;1.10;;;1.00;;
35679;SDS011;21803;53.586;10.040;2024-01-11T03:52:21;1.10;;;1.00;;
35679;SDS011;21803;53.586;10.040;2024-01-11T03:54:47;0.97;;;0.90;;
35679;SDS011;21803;53.586;10.040;2024-01-11T03:57:13;1.23;;;1.13;;
35679;SDS011;21803;53.586;10.040;2024-01-11T03:59:39;1.17;;;1.03;;
35679;SDS011;21803;53.586;10.040;2024-01-11T04:02:05;1.20;;;1.10;;
35679;SDS011;21803;53.586;10.040;2024-01-11T04:04:32;1.10;;;1.00;;
35679;SDS011;21803;53.586;10.040;2024-01-11T04:06:58;1.27;;;1.17;;
35679;SDS011;21803;53.586;10.040;2024-01-11T04:09:23;1.27;;;1.07;;
35679;SDS011;21803;53.586;10.040;2024-01-11T04:11:49;1.10;;;1.00;;
35679;SDS011;21803;53.586;10.040;2024-01-11T04:14:15;1.53;;;1.23;;
35679;SDS011;21803;53.586;10.040;2024-01-11T04:16:41;1.00;;;0.90;;
35679;SDS011;21803;53.586;10.040;2024-01-11T04:19:07;1.60;;;1.40;;
35679;SDS011;21803;53.586;10.040;2024-01-11T04:21:33;1.10;;;1.00;;
35679;SDS011;21803;53.586;10.040;2024-01-11T04:23:59;1.50;;;1.20;;
35679;SDS011;21803;53.586;10.040;2024-01-11T04:26:25;1.10;;;1.00;;
35679;SDS011;21803;53.586;10.040;2024-01-11T04:28:51;1.30;;;1.13;;
35679;SDS011;21803;53.586;10.040;2024-01-11T04:31:17;1.23;;;1.07;;
35679;SDS011;21803;53.586;10.040;2024-01-11T04:33:43;1.50;;;1.30;;
35679;SDS011;21803;53.586;10.040;2024-01-11T04:36:10;1.20;;;1.10;;
35679;SDS011;21803;53.586;10.040;2024-01-11T04:38:37;1.43;;;1.20;;
35679;SDS011;21803;53.586;10.040;2024-01-11T04:41:09;1.77;;;1.47;;
35679;SDS011;21803;53.586;10.040;2024-01-11T04:43:37;1.47;;;1.10;;
35679;SDS011;21803;53.586;10.040;2024-01-11T04:46:03;1.30;;;1.17;;
35679;SDS011;21803;53.586;10.040;2024-01-11T04:48:37;1.43;;;1.20;;
35679;SDS011;21803;53.586;10.040;2024-01-11T04:51:03;1.53;;;1.30;;
35679;SDS011;21803;53.586;10.040;2024-01-11T04:53:29;1.57;;;1.30;;
35679;SDS011;21803;53.586;10.040;2024-01-11T04:55:55;1.60;;;1.40;;
35679;SDS011;21803;53.586;10.040;2024-01-11T04:58:21;1.60;;;1.20;;
35679;SDS011;21803;53.586;10.040;2024-01-11T05:00:47;1.43;;;1.30;;
35679;SDS011;21803;53.586;10.040;2024-01-11T05:03:13;1.90;;;1.50;;
35679;SDS011;21803;53.586;10.040;2024-01-11T05:05:39;1.63;;;1.40;;
35679;SDS011;21803;53.586;10.040;2024-01-11T05:08:05;1.90;;;1.50;;
35679;SDS011;21803;53.586;10.040;2024-01-11T05:10:31;1.60;;;1.30;;
35679;SDS011;21803;53.586;10.040;2024-01-11T05:12:57;1.60;;;1.40;;
35679;SDS011;21803;53.586;10.040;2024-01-11T05:15:22;2.20;;;1.70;;
35679;SDS011;21803;53.586;10.040;2024-01-11T05:17:48;1.70;;;1.40;;
35679;SDS011;21803;53.586;10.040;2024-01-11T05:20:14;1.50;;;1.40;;
35679;SDS011;21803;53.586;10.040;2024-01-11T05:22:40;1.80;;;1.50;;
35679;SDS011;21803;53.586;10.040;2024-01-11T05:25:06;1.67;;;1.43;;
35679;SDS011;21803;53.586;10.040;2024-01-11T05:27:31;1.53;;;1.43;;
35679;SDS011;21803;53.586;10.040;2024-01-11T05:29:57;1.73;;;1.43;;
35679;SDS011;21803;53.586;10.040;2024-01-11T05:32:23;1.63;;;1.40;;
35679;SDS011;21803;53.586;10.040;2024-01-11T05:34:49;1.60;;;1.50;;
35679;SDS011;21803;53.586;10.040;2024-01-11T05:37:15;1.80;;;1.60;;
35679;SDS011;21803;53.586;10.040;2024-01-11T05:39:41;1.80;;;1.60;;
35679;SDS011;21803;53.586;10.040;2024-01-11T05:42:07;1.90;;;1.50;;
35679;SDS011;21803;53.586;10.040;2024-01-11T05:44:33;1.80;;;1.40;;
35679;SDS011;21803;53.586;10.040;2024-01-11T05:46:59;1.73;;;1.30;;
35679;SDS011;21803;53.586;10.040;2024-01-11T05:49:25;1.57;;;1.43;;
35679;SDS011;21803;53.586;10.040;2024-01-11T05:51:51;2.17;;;1.57;;
35679;SDS011;21803;53.586;10.040;2024-01-11T05:54:16;1.80;;;1.63;;
35679;SDS011;21803;53.586;10.040;2024-01-11T05:56:42;2.00;;;1.57;;
35679;SDS011;21803;53.586;10.040;2024-01-11T05:59:08;1.60;;;1.50;;
35679;SDS011;21803;53.586;10.040;2024-01-11T06:01:33;1.97;;;1.50;;
35679;SDS011;21803;53.586;10.040;2024-01-11T06:04:05;1.40;;;1.10;;
35679;SDS011;21803;53.586;10.040;2024-01-11T06:06:31;1.87;;;1.30;;
35679;SDS011;21803;53.586;10.040;2024-01-11T06:08:57;1.40;;;1.30;;
35679;SDS011;21803;53.586;10.040;2024-01-11T06:11:23;1.60;;;1.33;;
35679;SDS011;21803;53.586;10.040;2024-01-11T06:13:48;1.60;;;1.40;;
35679;SDS011;21803;53.586;10.040;2024-01-11T06:16:14;1.57;;;1.40;;
35679;SDS011;21803;53.586;10.040;2024-01-11T06:18:40;1.33;;;1.23;;
35679;SDS011;21803;53.586;10.040;2024-01-11T06:21:06;2.17;;;1.80;;
35679;SDS011;21803;53.586;10.040;2024-01-11T06:23:32;2.00;;;1.60;;
35679;SDS011;21803;53.586;10.040;2024-01-11T06:25:58;1.77;;;1.60;;
35679;SDS011;21803;53.586;10.040;2024-01-11T06:28:24;1.73;;;1.60;;
35679;SDS011;21803;53.586;10.040;2024-01-11T06:30:50;2.13;;;1.60;;
35679;SDS011;21803;53.586;10.040;2024-01-11T06:33:16;1.50;;;1.40;;
35679;SDS011;21803;53.586;10.040;2024-01-11T06:35:42;1.67;;;1.40;;
35679;SDS011;21803;53.586;10.040;2024-01-11T06:38:07;1.57;;;1.37;;
35679;SDS011;21803;53.586;10.040;2024-01-11T06:40:33;1.53;;;1.40;;
35679;SDS011;21803;53.586;10.040;2024-01-11T06:42:58;1.60;;;1.40;;
35679;SDS011;21803;53.586;10.040;2024-01-11T06:45:24;1.73;;;1.37;;
35679;SDS011;21803;53.586;10.040;2024-01-11T06:47:50;1.47;;;1.30;;
35679;SDS011;21803;53.586;10.040;2024-01-11T06:50:15;1.73;;;1.43;;
35679;SDS011;21803;53.586;10.040;2024-01-11T06:52:41;1.30;;;1.20;;
35679;SDS011;21803;53.586;10.040;2024-01-11T06:55:08;1.40;;;1.27;;
35679;SDS011;21803;53.586;10.040;2024-01-11T06:57:34;1.57;;;1.40;;
35679;SDS011;21803;53.586;10.040;2024-01-11T07:00:00;1.50;;;1.40;;
35679;SDS011;21803;53.586;10.040;2024-01-11T07:02:26;1.40;;;1.30;;
35679;SDS011;21803;53.586;10.040;2024-01-11T07:04:52;1.60;;;1.30;;
35679;SDS011;21803;53.586;10.040;2024-01-11T07:07:18;1.57;;;1.23;;
35679;SDS011;21803;53.586;10.040;2024-01-11T07:09:44;1.53;;;1.43;;
35679;SDS011;21803;53.586;10.040;2024-01-11T07:12:09;1.80;;;1.50;;
35679;SDS011;21803;53.586;10.040;2024-01-11T07:14:35;1.77;;;1.43;;
35679;SDS011;21803;53.586;10.040;2024-01-11T07:17:03;1.70;;;1.30;;
35679;SDS011;21803;53.586;10.040;2024-01-11T07:19:29;1.30;;;1.20;;
35679;SDS011;21803;53.586;10.040;2024-01-11T07:21:55;1.57;;;1.20;;
35679;SDS011;21803;53.586;10.040;2024-01-11T07:24:20;1.37;;;1.20;;
35679;SDS011;21803;53.586;10.040;2024-01-11T07:26:46;1.53;;;1.10;;
35679;SDS011;21803;53.586;10.040;2024-01-11T07:29:12;1.93;;;1.43;;
35679;SDS011;21803;53.586;10.040;2024-01-11T07:31:37;1.70;;;1.50;;
35679;SDS011;21803;53.586;10.040;2024-01-11T07:34:03;1.50;;;1.30;;
35679;SDS011;21803;53.586;10.040;2024-01-11T07:36:29;2.07;;;1.20;;
35679;SDS011;21803;53.586;10.040;2024-01-11T07:38:55;1.30;;;1.13;;
35679;SDS011;21803;53.586;10.040;2024-01-11T07:41:21;1.10;;;1.00;;
35679;SDS011;21803;53.586;10.040;2024-01-11T07:43:47;1.43;;;1.23;;
35679;SDS011;21803;53.586;10.040;2024-01-11T07:46:13;1.73;;;1.43;;
35679;SDS011;21803;53.586;10.040;2024-01-11T07:48:39;1.83;;;1.17;;
35679;SDS011;21803;53.586;10.040;2024-01-11T07:51:05;1.60;;;1.30;;
35679;SDS011;21803;53.586;10.040;2024-01-11T07:53:31;1.73;;;1.40;;
35679;SDS011;21803;53.586;10.040;2024-01-11T07:55:57;1.30;;;1.07;;
35679;SDS011;21803;53.586;10.040;2024-01-11T07:58:23;1.50;;;1.30;;
35679;SDS011;21803;53.586;10.040;2024-01-11T08:00:48;1.40;;;1.07;;
35679;SDS011;21803;53.586;10.040;2024-01-11T08:03:15;1.43;;;1.20;;
35679;SDS011;21803;53.586;10.040;2024-01-11T08:05:41;1.33;;;1.10;;
35679;SDS011;21803;53.586;10.040;2024-01-11T08:08:09;1.30;;;1.20;;
35679;SDS011;21803;53.586;10.040;2024-01-11T08:10:35;1.93;;;1.40;;
35679;SDS011;21803;53.586;10.040;2024-01-11T08:13:01;1.87;;;1.47;;
35679;SDS011;21803;53.586;10.040;2024-01-11T08:15:27;1.40;;;1.10;;
35679;SDS011;21803;53.586;10.040;2024-01-11T08:17:53;1.60;;;1.37;;
35679;SDS011;21803;53.586;10.040;2024-01-11T08:20:18;1.10;;;1.00;;
35679;SDS011;21803;53.586;10.040;2024-01-11T08:22:45;1.40;;;1.13;;
35679;SDS011;21803;53.586;10.040;2024-01-11T08:25:12;1.40;;;1.20;;
35679;SDS011;21803;53.586;10.040;2024-01-11T08:27:38;1.80;;;1.23;;
35679;SDS011;21803;53.586;10.040;2024-01-11T08:30:04;1.33;;;1.20;;
35679;SDS011;21803;53.586;10.040;2024-01-11T08:32:30;1.13;;;1.03;;
35679;SDS011;21803;53.586;10.040;2024-01-11T08:34:56;1.90;;;1.10;;
35679;SDS011;21803;53.586;10.040;2024-01-11T08:37:22;1.27;;;1.00;;
35679;SDS011;21803;53.586;10.040;2024-01-11T08:39:49;1.10;;;1.00;;
35679;SDS011;21803;53.586;10.040;2024-01-11T08:42:15;1.67;;;1.27;;
35679;SDS011;21803;53.586;10.040;2024-01-11T08:44:41;1.07;;;0.97;;
35679;SDS011;21803;53.586;10.040;2024-01-11T08:47:07;1.43;;;1.27;;
35679;SDS011;21803;53.586;10.040;2024-01-11T08:49:35;1.43;;;1.20;;
35679;SDS011;21803;53.586;10.040;2024-01-11T08:52:01;1.17;;;1.07;;
35679;SDS011;21803;53.586;10.040;2024-01-11T08:54:27;1.47;;;1.23;;
35679;SDS011;21803;53.586;10.040;2024-01-11T08:56:53;1.20;;;1.00;;
35679;SDS011;21803;53.586;10.040;2024-01-11T08:59:19;1.20;;;1.00;;
35679;SDS011;21803;53.586;10.040;2024-01-11T09:01:49;1.20;;;1.00;;
35679;SDS011;21803;53.586;10.040;2024-01-11T09:04:15;1.33;;;1.17;;
35679;SDS011;21803;53.586;10.040;2024-01-11T09:06:42;1.30;;;1.10;;
35679;SDS011;21803;53.586;10.040;2024-01-11T09:09:08;1.30;;;1.00;;
35679;SDS011;21803;53.586;10.040;2024-01-11T09:11:35;1.17;;;1.07;;
35679;SDS011;21803;53.586;10.040;2024-01-11T09:14:01;1.30;;;1.03;;
35679;SDS011;21803;53.586;10.040;2024-01-11T09:16:30;1.17;;;1.03;;
35679;SDS011;21803;53.586;10.040;2024-01-11T09:18:55;1.00;;;0.90;;
35679;SDS011;21803;53.586;10.040;2024-01-11T09:21:21;1.10;;;1.00;;
35679;SDS011;21803;53.586;10.040;2024-01-11T09:23:47;1.37;;;1.00;;
35679;SDS011;21803;53.586;10.040;2024-01-11T09:26:13;1.27;;;1.10;;
35679;SDS011;21803;53.586;10.040;2024-01-11T09:28:39;1.10;;;0.93;;
35679;SDS011;21803;53.586;10.040;2024-01-11T09:31:04;1.40;;;1.00;;
35679;SDS011;21803;53.586;10.040;2024-01-11T09:33:30;1.17;;;1.07;;
35679;SDS011;21803;53.586;10.040;2024-01-11T09:35:57;0.93;;;0.90;;
35679;SDS011;21803;53.586;10.040;2024-01-11T09:38:23;1.13;;;0.90;;
35679;SDS011;21803;53.586;10.040;2024-01-11T09:41:08;1.20;;;1.10;;
35679;SDS011;21803;53.586;10.040;2024-01-11T09:43:34;1.23;;;1.10;;
35679;SDS011;21803;53.586;10.040;2024-01-11T09:46:04;1.27;;;1.10;;
35679;SDS011;21803;53.586;10.040;2024-01-11T09:48:34;1.30;;;1.00;;
35679;SDS011;21803;53.586;10.040;2024-01-11T09:51:01;1.20;;;1.10;;
35679;SDS011;21803;53.586;10.040;2024-01-11T09:53:28;1.03;;;0.90;;
35679;SDS011;21803;53.586;10.040;2024-01-11T09:55:56;1.20;;;1.10;;
35679;SDS011;21803;53.586;10.040;2024-01-11T09:58:23;0.90;;;0.80;;
35679;SDS011;21803;53.586;10.040;2024-01-11T10:00:49;1.03;;;0.90;;
35679;SDS011;21803;53.586;10.040;2024-01-11T10:03:22;1.00;;;0.90;;
35679;SDS011;21803;53.586;10.040;2024-01-11T10:05:49;1.00;;;0.80;;
35679;SDS011;21803;53.586;10.040;2024-01-11T10:08:21;1.60;;;1.00;;
35679;SDS011;21803;53.586;10.040;2024-01-11T10:10:47;1.07;;;0.87;;
35679;SDS011;21803;53.586;10.040;2024-01-11T10:13:13;1.20;;;1.00;;
35679;SDS011;21803;53.586;10.040;2024-01-11T10:15:39;0.83;;;0.80;;
35679;SDS011;21803;53.586;10.040;2024-01-11T10:18:05;1.20;;;1.10;;
35679;SDS011;21803;53.586;10.040;2024-01-11T10:20:31;1.17;;;0.80;;
35679;SDS011;21803;53.586;10.040;2024-01-11T10:22:57;0.90;;;0.80;;
35679;SDS011;21803;53.586;10.040;2024-01-11T10:25:23;1.00;;;0.90;;
35679;SDS011;21803;53.586;10.040;2024-01-11T10:27:48;1.10;;;1.00;;
35679;SDS011;21803;53.586;10.040;2024-01-11T10:30:15;1.50;;;0.90;;
35679;SDS011;21803;53.586;10.040;2024-01-11T10:32:42;1.43;;;1.00;;
35679;SDS011;21803;53.586;10.040;2024-01-11T10:35:10;0.90;;;0.80;;
35679;SDS011;21803;53.586;10.040;2024-01-11T10:37:37;0.93;;;0.83;;
35679;SDS011;21803;53.586;10.040;2024-01-11T10:40:07;0.87;;;0.80;;
35679;SDS011;21803;53.586;10.040;2024-01-11T10:42:50;1.00;;;0.90;;
35679;SDS011;21803;53.586;10.040;2024-01-11T10:45:17;1.23;;;0.90;;
35679;SDS011;21803;53.586;10.040;2024-01-11T10:47:47;1.10;;;0.90;;
35679;SDS011;21803;53.586;10.040;2024-01-11T10:50:22;1.20;;;0.93;;
35679;SDS011;21803;53.586;10.040;2024-01-11T10:52:54;1.07;;;0.80;;
35679;SDS011;21803;53.586;10.040;2024-01-11T10:55:28;1.23;;;1.00;;
35679;SDS011;21803;53.586;10.040;2024-01-11T10:57:56;1.20;;;0.90;;
35679;SDS011;21803;53.586;10.040;2024-01-11T11:00:23;1.20;;;1.00;;
35679;SDS011;21803;53.586;10.040;2024-01-11T11:02:50;0.80;;;0.80;;
35679;SDS011;21803;53.586;10.040;2024-01-11T11:05:18;1.20;;;0.90;;
35679;SDS011;21803;53.586;10.040;2024-01-11T11:07:45;1.20;;;1.10;;
35679;SDS011;21803;53.586;10.040;2024-01-11T11:10:13;0.73;;;0.73;;
35679;SDS011;21803;53.586;10.040;2024-01-11T11:12:40;0.90;;;0.80;;
35679;SDS011;21803;53.586;10.040;2024-01-11T11:15:07;1.00;;;0.80;;
35679;SDS011;21803;53.586;10.040;2024-01-11T11:17:36;1.00;;;0.90;;
35679;SDS011;21803;53.586;10.040;2024-01-11T11:20:02;1.00;;;0.80;;
35679;SDS011;21803;53.586;10.040;2024-01-11T11:22:33;1.00;;;0.90;;
35679;SDS011;21803;53.586;10.040;2024-01-11T11:25:03;1.87;;;1.00;;
35679;SDS011;21803;53.586;10.040;2024-01-11T11:27:33;1.00;;;0.90;;
35679;SDS011;21803;53.586;10.040;2024-01-11T11:29:58;1.20;;;1.10;;
35679;SDS011;21803;53.586;10.040;2024-01-11T11:32:36;0.90;;;0.80;;
35679;SDS011;21803;53.586;10.040;2024-01-11T11:35:03;1.33;;;1.10;;
35679;SDS011;21803;53.586;10.040;2024-01-11T11:37:29;0.80;;;0.73;;
35679;SDS011;21803;53.586;10.040;2024-01-11T11:39:57;1.20;;;1.10;;
35679;SDS011;21803;53.586;10.040;2024-01-11T11:42:23;1.20;;;1.10;;
35679;SDS011;21803;53.586;10.040;2024-01-11T11:44:50;1.37;;;0.90;;
35679;SDS011;21803;53.586;10.040;2024-01-11T11:47:17;0.90;;;0.90;;
35679;SDS011;21803;53.586;10.040;2024-01-11T11:50:03;1.10;;;1.00;;
35679;SDS011;21803;53.586;10.040;2024-01-11T11:52:30;1.00;;;0.90;;
35679;SDS011;21803;53.586;10.040;2024-01-11T11:55:00;1.13;;;0.87;;
35679;SDS011;21803;53.586;10.040;2024-01-11T11:57:27;1.27;;;1.03;;
35679;SDS011;21803;53.586;10.040;2024-01-11T11:59:56;1.23;;;1.03;;
35679;SDS011;21803;53.586;10.040;2024-01-11T12:02:23;1.30;;;1.13;;
35679;SDS011;21803;53.586;10.040;2024-01-11T12:04:50;1.53;;;1.17;;
35679;SDS011;21803;53.586;10.040;2024-01-11T12:07:16;1.10;;;0.90;;
35679;SDS011;21803;53.586;10.040;2024-01-11T12:09:42;1.27;;;1.10;;
35679;SDS011;21803;53.586;10.040;2024-01-11T12:12:08;0.93;;;0.90;;
35679;SDS011;21803;53.586;10.040;2024-01-11T12:14:35;0.93;;;0.90;;
35679;SDS011;21803;53.586;10.040;2024-01-11T12:17:00;1.13;;;1.00;;
35679;SDS011;21803;53.586;10.040;2024-01-11T12:19:27;1.00;;;0.90;;
35679;SDS011;21803;53.586;10.040;2024-01-11T12:21:53;1.37;;;0.90;;
35679;SDS011;21803;53.586;10.040;2024-01-11T12:24:19;1.50;;;1.10;;
35679;SDS011;21803;53.586;10.040;2024-01-11T12:26:47;1.10;;;1.00;;
35679;SDS011;21803;53.586;10.040;2024-01-11T12:29:15;1.27;;;1.10;;
35679;SDS011;21803;53.586;10.040;2024-01-11T12:31:43;1.00;;;0.90;;
35679;SDS011;21803;53.586;10.040;2024-01-11T12:34:09;1.10;;;0.90;;
35679;SDS011;21803;53.586;10.040;2024-01-11T12:36:36;1.20;;;1.00;;
35679;SDS011;21803;53.586;10.040;2024-01-11T12:39:02;1.00;;;0.90;;
35679;SDS011;21803;53.586;10.040;2024-01-11T12:41:31;1.00;;;0.80;;
35679;SDS011;21803;53.586;10.040;2024-01-11T12:43:58;1.40;;;0.90;;
35679;SDS011;21803;53.586;10.040;2024-01-11T12:46:23;1.00;;;0.90;;
35679;SDS011;21803;53.586;10.040;2024-01-11T12:48:49;1.10;;;1.00;;
35679;SDS011;21803;53.586;10.040;2024-01-11T12:51:16;1.10;;;1.00;;
35679;SDS011;21803;53.586;10.040;2024-01-11T12:53:46;1.20;;;0.90;;
35679;SDS011;21803;53.586;10.040;2024-01-11T12:56:14;1.10;;;1.00;;
35679;SDS011;21803;53.586;10.040;2024-01-11T12:58:40;0.90;;;0.80;;
35679;SDS011;21803;53.586;10.040;2024-01-11T13:01:06;1.07;;;0.93;;
35679;SDS011;21803;53.586;10.040;2024-01-11T13:03:37;1.20;;;1.10;;
35679;SDS011;21803;53.586;10.040;2024-01-11T13:06:04;1.07;;;0.97;;
35679;SDS011;21803;53.586;10.040;2024-01-11T13:08:31;1.17;;;0.90;;
35679;SDS011;21803;53.586;10.040;2024-01-11T13:10:56;1.10;;;0.90;;
35679;SDS011;21803;53.586;10.040;2024-01-11T13:13:22;1.33;;;1.20;;
35679;SDS011;21803;53.586;10.040;2024-01-11T13:15:48;1.30;;;1.00;;
35679;SDS011;21803;53.586;10.040;2024-01-11T13:18:15;1.17;;;1.07;;
35679;SDS011;21803;53.586;10.040;2024-01-11T13:20:41;1.20;;;0.93;;
35679;SDS011;21803;53.586;10.040;2024-01-11T13:23:14;1.20;;;1.10;;
35679;SDS011;21803;53.586;10.040;2024-01-11T13:25:41;1.23;;;1.00;;
35679;SDS011;21803;53.586;10.040;2024-01-11T13:28:08;1.40;;;1.10;;
35679;SDS011;21803;53.586;10.040;2024-01-11T13:30:34;1.20;;;1.10;;
35679;SDS011;21803;53.586;10.040;2024-01-11T13:33:00;1.10;;;1.00;;
35679;SDS011;21803;53.586;10.040;2024-01-11T13:35:26;1.80;;;1.43;;
35679;SDS011;21803;53.586;10.040;2024-01-11T13:37:52;1.60;;;1.10;;
35679;SDS011;21803;53.586;10.040;2024-01-11T13:40:18;1.10;;;1.00;;
35679;SDS011;21803;53.586;10.040;2024-01-11T13:42:44;1.43;;;1.30;;
35679;SDS011;21803;53.586;10.040;2024-01-11T13:45:10;1.40;;;1.10;;
35679;SDS011;21803;53.586;10.040;2024-01-11T13:47:37;1.10;;;1.00;;
35679;SDS011;21803;53.586;10.040;2024-01-11T13:50:03;1.10;;;0.87;;
35679;SDS011;21803;53.586;10.040;2024-01-11T13:52:29;1.10;;;1.00;;
35679;SDS011;21803;53.586;10.040;2024-01-11T13:54:55;1.07;;;0.93;;
35679;SDS011;21803;53.586;10.040;2024-01-11T13:57:20;1.33;;;1.20;;
35679;SDS011;21803;53.586;10.040;2024-01-11T13:59:46;1.33;;;1.10;;
35679;SDS011;21803;53.586;10.040;2024-01-11T14:02:14;1.27;;;0.90;;
35679;SDS011;21803;53.586;10.040;2024-01-11T14:04:39;1.10;;;1.00;;
35679;SDS011;21803;53.586;10.040;2024-01-11T14:07:05;1.07;;;0.97;;
35679;SDS011;21803;53.586;10.040;2024-01-11T14:09:31;1.17;;;1.07;;
35679;SDS011;21803;53.586;10.040;2024-01-11T14:11:57;1.30;;;1.00;;
35679;SDS011;21803;53.586;10.040;2024-01-11T14:14:23;1.03;;;0.93;;
35679;SDS011;21803;53.586;10.040;2024-01-11T14:16:49;1.10;;;1.00;;
35679;SDS011;21803;53.586;10.040;2024-01-11T14:19:16;1.30;;;1.00;;
35679;SDS011;21803;53.586;10.040;2024-01-11T14:21:42;1.60;;;1.10;;
35679;SDS011;21803;53.586;10.040;2024-01-11T14:24:08;1.23;;;1.10;;
35679;SDS011;21803;53.586;10.040;2024-01-11T14:26:34;1.10;;;0.90;;
35679;SDS011;21803;53.586;10.040;2024-01-11T14:29:00;1.30;;;1.20;;